KACP

Allen Parish Airport

Oakdale, Louisiana, USA
METAR KACP 201615Z AUTO 10007KT 10SM SCT030 SCT035 SCT043 31/24 A3003 RMK AO2 T03130239
Observed Flight Rules
Aug-20 @ 16:15 UTC (10 minutes ago) Visual Flight Rules
Wind Visibility Clouds
100° at 7 knots 10 miles
  • Scattered at 3,000' AGL
  • Scattered at 3,500' AGL
  • Scattered at 4,300' AGL
Temperatures Readings
Current 31°C / 88°F
Dewpoint 24°C / 75°F
Humidity 66%
Altimeter 30.03" Hg
Pressure 1017 hPa
Elevation 33
METAR KACP 201615Z AUTO 10007KT 10SM SCT030 SCT035 SCT043 31/24 A3003 RMK AO2 T03130239
Observed Flight Rules
Aug-20 @ 16:15 UTC
(10 minutes ago)
VFR
Wind Visibility
100° at 7 knots 10 miles
Clouds
  • Scattered at 3,000' AGL
  • Scattered at 3,500' AGL
  • Scattered at 4,300' AGL
Temperature Dewpoint
31°C / 88°F 24°C / 75°F
Humidity Altimeter Pressure
66% 30.03" Hg 1017 hPa